sensor_id;sensor_type;location;lat;lon;timestamp;pressure;altitude;pressure_sealevel;temperature;humidity
51313;BME280;37397;53.226;10.400;2024-01-10T00:02:21;103103.97;;;-2.43;65.85
51313;BME280;37397;53.226;10.400;2024-01-10T00:04:47;103102.88;;;-2.51;65.79
51313;BME280;37397;53.226;10.400;2024-01-10T00:07:14;103101.03;;;-2.47;65.83
51313;BME280;37397;53.226;10.400;2024-01-10T00:09:40;103092.97;;;-2.48;65.80
51313;BME280;37397;53.226;10.400;2024-01-10T00:12:07;103093.66;;;-2.51;65.53
51313;BME280;37397;53.226;10.400;2024-01-10T00:14:34;103096.44;;;-2.51;65.52
51313;BME280;37397;53.226;10.400;2024-01-10T00:17:00;103099.25;;;-2.51;65.58
51313;BME280;37397;53.226;10.400;2024-01-10T00:19:27;103096.31;;;-2.55;65.73
51313;BME280;37397;53.226;10.400;2024-01-10T00:21:53;103087.91;;;-2.55;65.33
51313;BME280;37397;53.226;10.400;2024-01-10T00:24:20;103090.56;;;-2.59;65.68
51313;BME280;37397;53.226;10.400;2024-01-10T00:26:46;103088.91;;;-2.60;65.66
51313;BME280;37397;53.226;10.400;2024-01-10T00:29:13;103088.91;;;-2.60;65.32
51313;BME280;37397;53.226;10.400;2024-01-10T00:31:40;103082.19;;;-2.59;65.56
51313;BME280;37397;53.226;10.400;2024-01-10T00:34:07;103074.13;;;-2.60;65.18
51313;BME280;37397;53.226;10.400;2024-01-10T00:36:33;103088.91;;;-2.60;65.73
51313;BME280;37397;53.226;10.400;2024-01-10T00:39:00;103074.31;;;-2.65;65.68
51313;BME280;37397;53.226;10.400;2024-01-10T00:41:26;103087.97;;;-2.64;65.68
51313;BME280;37397;53.226;10.400;2024-01-10T00:43:53;103080.56;;;-2.68;65.66
51313;BME280;37397;53.226;10.400;2024-01-10T00:46:19;103079.06;;;-2.66;65.53
51313;BME280;37397;53.226;10.400;2024-01-10T00:48:46;103076.13;;;-2.69;65.65
51313;BME280;37397;53.226;10.400;2024-01-10T00:51:13;103069.25;;;-2.72;65.09
51313;BME280;37397;53.226;10.400;2024-01-10T00:53:40;103082.53;;;-2.69;65.32
51313;BME280;37397;53.226;10.400;2024-01-10T00:56:07;103094.88;;;-2.70;65.24
51313;BME280;37397;53.226;10.400;2024-01-10T00:58:33;103074.66;;;-2.76;65.00
51313;BME280;37397;53.226;10.400;2024-01-10T01:01:00;103089.94;;;-2.73;65.08
51313;BME280;37397;53.226;10.400;2024-01-10T01:03:27;103074.66;;;-2.76;64.99
51313;BME280;37397;53.226;10.400;2024-01-10T01:05:54;103063.84;;;-2.86;65.38
51313;BME280;37397;53.226;10.400;2024-01-10T01:08:20;103078.63;;;-2.77;65.43
51313;BME280;37397;53.226;10.400;2024-01-10T01:10:47;103080.09;;;-2.79;64.95
51313;BME280;37397;53.226;10.400;2024-01-10T01:13:14;103071.44;;;-2.86;64.91
51313;BME280;37397;53.226;10.400;2024-01-10T01:15:40;103082.41;;;-2.81;64.96
51313;BME280;37397;53.226;10.400;2024-01-10T01:18:07;103070.25;;;-2.85;65.65
51313;BME280;37397;53.226;10.400;2024-01-10T01:20:36;103070.25;;;-2.85;64.95
51313;BME280;37397;53.226;10.400;2024-01-10T01:23:03;103088.66;;;-2.84;65.26
51313;BME280;37397;53.226;10.400;2024-01-10T01:25:29;103083.75;;;-2.87;65.34
51313;BME280;37397;53.226;10.400;2024-01-10T01:27:56;103078.16;;;-2.87;65.80
51313;BME280;37397;53.226;10.400;2024-01-10T01:30:22;103098.19;;;-2.85;65.30
51313;BME280;37397;53.226;10.400;2024-01-10T01:32:49;103090.47;;;-2.88;65.24
51313;BME280;37397;53.226;10.400;2024-01-10T01:35:16;103094.09;;;-2.88;65.29
51313;BME280;37397;53.226;10.400;2024-01-10T01:37:48;103093.13;;;-2.92;65.19
51313;BME280;37397;53.226;10.400;2024-01-10T01:40:15;103093.25;;;-2.88;64.99
51313;BME280;37397;53.226;10.400;2024-01-10T01:42:44;103091.66;;;-2.89;65.60
51313;BME280;37397;53.226;10.400;2024-01-10T01:45:12;103094.44;;;-2.89;65.10
51313;BME280;37397;53.226;10.400;2024-01-10T01:47:39;103083.78;;;-2.96;65.83
51313;BME280;37397;53.226;10.400;2024-01-10T01:50:07;103088.19;;;-2.95;65.58
51313;BME280;37397;53.226;10.400;2024-01-10T01:52:34;103093.78;;;-2.95;65.24
51313;BME280;37397;53.226;10.400;2024-01-10T01:55:01;103085.06;;;-2.94;65.46
51313;BME280;37397;53.226;10.400;2024-01-10T01:57:29;103085.41;;;-2.95;64.94
51313;BME280;37397;53.226;10.400;2024-01-10T01:59:56;103079.19;;;-3.01;65.55
51313;BME280;37397;53.226;10.400;2024-01-10T02:02:22;103085.41;;;-2.95;65.15
51313;BME280;37397;53.226;10.400;2024-01-10T02:04:50;103069.63;;;-3.00;65.43
51313;BME280;37397;53.226;10.400;2024-01-10T02:07:17;103079.00;;;-2.96;65.66
51313;BME280;37397;53.226;10.400;2024-01-10T02:09:43;103080.13;;;-2.97;65.31
51313;BME280;37397;53.226;10.400;2024-01-10T02:12:10;103075.22;;;-3.00;65.46
51313;BME280;37397;53.226;10.400;2024-01-10T02:14:37;103075.72;;;-2.98;65.40
51313;BME280;37397;53.226;10.400;2024-01-10T02:17:03;103071.28;;;-2.99;65.57
51313;BME280;37397;53.226;10.400;2024-01-10T02:19:30;103057.50;;;-3.04;65.34
51313;BME280;37397;53.226;10.400;2024-01-10T02:21:58;103062.91;;;-2.99;65.99
51313;BME280;37397;53.226;10.400;2024-01-10T02:24:25;103062.91;;;-2.99;65.37
51313;BME280;37397;53.226;10.400;2024-01-10T02:26:51;103062.91;;;-2.99;65.97
51313;BME280;37397;53.226;10.400;2024-01-10T02:29:18;103053.72;;;-2.99;65.96
51313;BME280;37397;53.226;10.400;2024-01-10T02:31:45;103051.25;;;-3.01;65.81
51313;BME280;37397;53.226;10.400;2024-01-10T02:34:11;103051.91;;;-3.04;65.51
51313;BME280;37397;53.226;10.400;2024-01-10T02:36:38;103052.72;;;-3.03;66.07
51313;BME280;37397;53.226;10.400;2024-01-10T02:39:04;103051.25;;;-3.01;66.25
51313;BME280;37397;53.226;10.400;2024-01-10T02:41:31;103057.97;;;-3.02;66.08
51313;BME280;37397;53.226;10.400;2024-01-10T02:43:58;103059.63;;;-3.01;66.03
51313;BME280;37397;53.226;10.400;2024-01-10T02:46:26;103059.44;;;-3.04;66.00
51313;BME280;37397;53.226;10.400;2024-01-10T02:48:55;103060.75;;;-3.02;65.51
51313;BME280;37397;53.226;10.400;2024-01-10T02:51:24;103068.66;;;-3.04;65.91
51313;BME280;37397;53.226;10.400;2024-01-10T02:53:51;103063.75;;;-3.07;65.92
51313;BME280;37397;53.226;10.400;2024-01-10T02:56:17;103065.38;;;-3.06;65.94
51313;BME280;37397;53.226;10.400;2024-01-10T02:58:44;103061.59;;;-3.10;65.61
51313;BME280;37397;53.226;10.400;2024-01-10T03:01:10;103054.88;;;-3.09;65.71
51313;BME280;37397;53.226;10.400;2024-01-10T03:03:37;103042.91;;;-3.18;66.22
51313;BME280;37397;53.226;10.400;2024-01-10T03:06:04;103055.88;;;-3.14;65.83
51313;BME280;37397;53.226;10.400;2024-01-10T03:08:31;103049.28;;;-3.09;65.54
51313;BME280;37397;53.226;10.400;2024-01-10T03:10:57;103047.50;;;-3.14;65.96
51313;BME280;37397;53.226;10.400;2024-01-10T03:13:24;103040.41;;;-3.11;66.14
51313;BME280;37397;53.226;10.400;2024-01-10T03:15:50;103039.59;;;-3.12;65.62
51313;BME280;37397;53.226;10.400;2024-01-10T03:18:17;103043.19;;;-3.11;66.05
51313;BME280;37397;53.226;10.400;2024-01-10T03:20:44;103034.34;;;-3.13;65.81
51313;BME280;37397;53.226;10.400;2024-01-10T03:23:10;103035.66;;;-3.10;65.64
51313;BME280;37397;53.226;10.400;2024-01-10T03:25:37;103028.41;;;-3.12;66.17
51313;BME280;37397;53.226;10.400;2024-01-10T03:28:03;103034.16;;;-3.08;65.96
51313;BME280;37397;53.226;10.400;2024-01-10T03:30:30;103028.56;;;-3.08;65.81
51313;BME280;37397;53.226;10.400;2024-01-10T03:32:57;103024.81;;;-3.12;66.18
51313;BME280;37397;53.226;10.400;2024-01-10T03:35:23;103031.84;;;-3.06;66.33
51313;BME280;37397;53.226;10.400;2024-01-10T03:37:50;103032.53;;;-3.09;65.80
51313;BME280;37397;53.226;10.400;2024-01-10T03:40:17;103025.78;;;-3.08;65.90
51313;BME280;37397;53.226;10.400;2024-01-10T03:42:43;103025.31;;;-3.10;66.53
51313;BME280;37397;53.226;10.400;2024-01-10T03:45:10;103028.56;;;-3.08;66.05
51313;BME280;37397;53.226;10.400;2024-01-10T03:47:36;103035.81;;;-3.07;66.51
51313;BME280;37397;53.226;10.400;2024-01-10T03:50:03;103032.69;;;-3.14;66.19
51313;BME280;37397;53.226;10.400;2024-01-10T03:52:30;103028.75;;;-3.13;66.33
51313;BME280;37397;53.226;10.400;2024-01-10T03:54:57;103031.69;;;-3.09;65.93
51313;BME280;37397;53.226;10.400;2024-01-10T03:57:24;103032.88;;;-3.10;66.29
51313;BME280;37397;53.226;10.400;2024-01-10T03:59:50;103040.91;;;-3.09;66.10
51313;BME280;37397;53.226;10.400;2024-01-10T04:02:17;103040.91;;;-3.09;66.25
51313;BME280;37397;53.226;10.400;2024-01-10T04:04:44;103035.81;;;-3.07;66.05
51313;BME280;37397;53.226;10.400;2024-01-10T04:07:10;103034.00;;;-3.12;65.93
51313;BME280;37397;53.226;10.400;2024-01-10T04:09:37;103045.34;;;-3.08;66.11
51313;BME280;37397;53.226;10.400;2024-01-10T04:12:04;103040.59;;;-3.07;66.23
51313;BME280;37397;53.226;10.400;2024-01-10T04:14:30;103045.34;;;-3.08;66.03
51313;BME280;37397;53.226;10.400;2024-01-10T04:16:57;103029.91;;;-3.14;66.41
51313;BME280;37397;53.226;10.400;2024-01-10T04:19:23;103037.13;;;-3.13;65.78
51313;BME280;37397;53.226;10.400;2024-01-10T04:21:50;103031.88;;;-3.15;65.46
51313;BME280;37397;53.226;10.400;2024-01-10T04:24:17;103040.06;;;-3.09;66.35
51313;BME280;37397;53.226;10.400;2024-01-10T04:26:43;103035.34;;;-3.09;65.80
51313;BME280;37397;53.226;10.400;2024-01-10T04:29:10;103025.47;;;-3.15;65.80
51313;BME280;37397;53.226;10.400;2024-01-10T04:31:37;103039.25;;;-3.10;65.83
51313;BME280;37397;53.226;10.400;2024-01-10T04:34:04;103040.41;;;-3.11;65.59
51313;BME280;37397;53.226;10.400;2024-01-10T04:36:31;103037.78;;;-3.16;65.80
51313;BME280;37397;53.226;10.400;2024-01-10T04:38:57;103048.31;;;-3.13;65.52
51313;BME280;37397;53.226;10.400;2024-01-10T04:41:24;103038.47;;;-3.19;65.91
51313;BME280;37397;53.226;10.400;2024-01-10T04:43:51;103036.84;;;-3.20;66.07
51313;BME280;37397;53.226;10.400;2024-01-10T04:46:18;103027.94;;;-3.22;65.71
51313;BME280;37397;53.226;10.400;2024-01-10T04:48:45;103028.78;;;-3.22;65.73
51313;BME280;37397;53.226;10.400;2024-01-10T04:51:11;103030.75;;;-3.22;66.09
51313;BME280;37397;53.226;10.400;2024-01-10T04:53:38;103029.59;;;-3.21;65.64
51313;BME280;37397;53.226;10.400;2024-01-10T04:56:05;103029.94;;;-3.23;65.93
51313;BME280;37397;53.226;10.400;2024-01-10T04:58:31;103029.13;;;-3.23;66.07
51313;BME280;37397;53.226;10.400;2024-01-10T05:00:59;103012.50;;;-3.28;65.95
51313;BME280;37397;53.226;10.400;2024-01-10T05:03:25;103011.38;;;-3.27;66.04
51313;BME280;37397;53.226;10.400;2024-01-10T05:05:52;103007.09;;;-3.25;66.00
51313;BME280;37397;53.226;10.400;2024-01-10T05:08:19;103015.16;;;-3.23;66.28
51313;BME280;37397;53.226;10.400;2024-01-10T05:10:49;102999.72;;;-3.30;65.68
51313;BME280;37397;53.226;10.400;2024-01-10T05:13:16;103006.94;;;-3.28;66.05
51313;BME280;37397;53.226;10.400;2024-01-10T05:15:43;103001.34;;;-3.28;65.91
51313;BME280;37397;53.226;10.400;2024-01-10T05:18:10;103004.66;;;-3.26;65.93
51313;BME280;37397;53.226;10.400;2024-01-10T05:20:37;102995.75;;;-3.28;65.96
51313;BME280;37397;53.226;10.400;2024-01-10T05:23:04;102991.81;;;-3.27;66.08
51313;BME280;37397;53.226;10.400;2024-01-10T05:25:31;102994.28;;;-3.26;66.44
51313;BME280;37397;53.226;10.400;2024-01-10T05:27:58;102996.59;;;-3.28;65.98
51313;BME280;37397;53.226;10.400;2024-01-10T05:30:25;102998.56;;;-3.28;65.95
51313;BME280;37397;53.226;10.400;2024-01-10T05:32:54;103008.72;;;-3.24;65.90
51313;BME280;37397;53.226;10.400;2024-01-10T05:35:21;103019.91;;;-3.24;66.10
51313;BME280;37397;53.226;10.400;2024-01-10T05:37:47;103016.97;;;-3.27;66.17
51313;BME280;37397;53.226;10.400;2024-01-10T05:40:14;103014.66;;;-3.25;65.65
51313;BME280;37397;53.226;10.400;2024-01-10T05:42:41;103019.75;;;-3.27;65.98
51313;BME280;37397;53.226;10.400;2024-01-10T05:45:07;103014.16;;;-3.27;65.96
51313;BME280;37397;53.226;10.400;2024-01-10T05:47:34;103015.81;;;-3.26;65.69
51313;BME280;37397;53.226;10.400;2024-01-10T05:50:01;103005.31;;;-3.30;66.02
51313;BME280;37397;53.226;10.400;2024-01-10T05:52:30;103015.81;;;-3.26;66.25
51313;BME280;37397;53.226;10.400;2024-01-10T05:54:57;103016.63;;;-3.26;66.20
51313;BME280;37397;53.226;10.400;2024-01-10T05:57:23;102992.66;;;-3.36;66.08
51313;BME280;37397;53.226;10.400;2024-01-10T05:59:50;102999.72;;;-3.30;66.12
51313;BME280;37397;53.226;10.400;2024-01-10T06:02:19;103011.03;;;-3.26;66.31
51313;BME280;37397;53.226;10.400;2024-01-10T06:04:45;103001.53;;;-3.34;66.24
51313;BME280;37397;53.226;10.400;2024-01-10T06:07:12;103013.69;;;-3.30;66.00
51313;BME280;37397;53.226;10.400;2024-01-10T06:09:38;103005.50;;;-3.35;66.15
51313;BME280;37397;53.226;10.400;2024-01-10T06:12:06;103027.78;;;-3.26;66.22
51313;BME280;37397;53.226;10.400;2024-01-10T06:14:33;103021.06;;;-3.34;65.93
51313;BME280;37397;53.226;10.400;2024-01-10T06:16:59;103013.69;;;-3.30;65.72
51313;BME280;37397;53.226;10.400;2024-01-10T06:19:27;103017.63;;;-3.31;66.28
51313;BME280;37397;53.226;10.400;2024-01-10T06:21:54;103024.53;;;-3.28;66.25
51313;BME280;37397;53.226;10.400;2024-01-10T06:24:20;103015.31;;;-3.28;65.74
51313;BME280;37397;53.226;10.400;2024-01-10T06:26:47;103023.69;;;-3.28;66.40
51313;BME280;37397;53.226;10.400;2024-01-10T06:29:16;103024.53;;;-3.28;66.30
51313;BME280;37397;53.226;10.400;2024-01-10T06:31:42;103021.22;;;-3.30;66.18
51313;BME280;37397;53.226;10.400;2024-01-10T06:34:09;103022.06;;;-3.30;65.83
51313;BME280;37397;53.226;10.400;2024-01-10T06:36:36;103020.06;;;-3.29;65.99
51313;BME280;37397;53.226;10.400;2024-01-10T06:39:02;103009.25;;;-3.31;66.17
51313;BME280;37397;53.226;10.400;2024-01-10T06:41:29;103013.88;;;-3.35;66.06
51313;BME280;37397;53.226;10.400;2024-01-10T06:43:56;103003.34;;;-3.38;66.03
51313;BME280;37397;53.226;10.400;2024-01-10T06:46:23;103009.41;;;-3.36;65.61
51313;BME280;37397;53.226;10.400;2024-01-10T06:48:49;102998.59;;;-3.46;66.21
51313;BME280;37397;53.226;10.400;2024-01-10T06:51:16;103014.53;;;-3.38;66.23
51313;BME280;37397;53.226;10.400;2024-01-10T06:53:43;103024.03;;;-3.39;66.35
51313;BME280;37397;53.226;10.400;2024-01-10T06:56:09;103013.19;;;-3.40;65.81
51313;BME280;37397;53.226;10.400;2024-01-10T06:58:36;103018.59;;;-3.35;65.85
51313;BME280;37397;53.226;10.400;2024-01-10T07:01:03;103008.94;;;-3.38;66.19
51313;BME280;37397;53.226;10.400;2024-01-10T07:03:31;103013.88;;;-3.35;66.01
51313;BME280;37397;53.226;10.400;2024-01-10T07:05:58;103017.78;;;-3.36;65.94
51313;BME280;37397;53.226;10.400;2024-01-10T07:08:25;103020.25;;;-3.34;66.17
51313;BME280;37397;53.226;10.400;2024-01-10T07:10:52;103018.44;;;-3.39;65.98
51313;BME280;37397;53.226;10.400;2024-01-10T07:13:23;103024.19;;;-3.35;66.10
51313;BME280;37397;53.226;10.400;2024-01-10T07:15:50;103030.63;;;-3.35;66.12
51313;BME280;37397;53.226;10.400;2024-01-10T07:18:18;103031.44;;;-3.34;66.37
51313;BME280;37397;53.226;10.400;2024-01-10T07:20:45;103012.88;;;-3.39;66.21
51313;BME280;37397;53.226;10.400;2024-01-10T07:23:11;103024.19;;;-3.35;66.21
51313;BME280;37397;53.226;10.400;2024-01-10T07:25:38;103031.44;;;-3.34;65.96
51313;BME280;37397;53.226;10.400;2024-01-10T07:28:05;103036.19;;;-3.35;66.18
51313;BME280;37397;53.226;10.400;2024-01-10T07:30:31;103031.28;;;-3.38;66.15
51313;BME280;37397;53.226;10.400;2024-01-10T07:32:59;103030.44;;;-3.38;65.87
51313;BME280;37397;53.226;10.400;2024-01-10T07:35:26;103025.03;;;-3.35;65.86
51313;BME280;37397;53.226;10.400;2024-01-10T07:37:54;103023.38;;;-3.36;65.88
51313;BME280;37397;53.226;10.400;2024-01-10T07:40:21;103016.47;;;-3.38;66.16
51313;BME280;37397;53.226;10.400;2024-01-10T07:42:49;103020.75;;;-3.41;66.38
51313;BME280;37397;53.226;10.400;2024-01-10T07:45:15;103024.50;;;-3.37;66.23
51313;BME280;37397;53.226;10.400;2024-01-10T07:47:42;103029.28;;;-3.37;66.06
51313;BME280;37397;53.226;10.400;2024-01-10T07:50:10;103016.00;;;-3.40;66.08
51313;BME280;37397;53.226;10.400;2024-01-10T07:52:36;103014.34;;;-3.41;66.44
51313;BME280;37397;53.226;10.400;2024-01-10T07:55:03;103023.06;;;-3.43;66.15
51313;BME280;37397;53.226;10.400;2024-01-10T07:57:33;103028.66;;;-3.43;66.05
51313;BME280;37397;53.226;10.400;2024-01-10T08:00:06;103035.53;;;-3.40;66.08
51313;BME280;37397;53.226;10.400;2024-01-10T08:02:37;103027.81;;;-3.43;65.81
51313;BME280;37397;53.226;10.400;2024-01-10T08:05:05;103026.69;;;-3.42;65.60
51313;BME280;37397;53.226;10.400;2024-01-10T08:07:32;103017.31;;;-3.46;66.00
51313;BME280;37397;53.226;10.400;2024-01-10T08:10:07;103023.06;;;-3.43;66.30
51313;BME280;37397;53.226;10.400;2024-01-10T08:12:36;103027.00;;;-3.44;65.92
51313;BME280;37397;53.226;10.400;2024-01-10T08:15:05;103024.88;;;-3.47;66.26
51313;BME280;37397;53.226;10.400;2024-01-10T08:17:32;103028.16;;;-3.45;66.29
51313;BME280;37397;53.226;10.400;2024-01-10T08:20:00;103027.66;;;-3.47;65.93
51313;BME280;37397;53.226;10.400;2024-01-10T08:22:27;103032.44;;;-3.47;65.88
51313;BME280;37397;53.226;10.400;2024-01-10T08:24:54;103028.31;;;-3.50;66.10
51313;BME280;37397;53.226;10.400;2024-01-10T08:27:22;103011.41;;;-3.54;66.01
51313;BME280;37397;53.226;10.400;2024-01-10T08:29:49;102997.94;;;-3.69;66.13
51313;BME280;37397;53.226;10.400;2024-01-10T08:32:15;103032.41;;;-3.56;65.65
51313;BME280;37397;53.226;10.400;2024-01-10T08:34:43;103028.97;;;-3.53;66.17
51313;BME280;37397;53.226;10.400;2024-01-10T08:37:11;103033.91;;;-3.50;65.53
51313;BME280;37397;53.226;10.400;2024-01-10T08:39:37;103021.09;;;-3.51;66.01
51313;BME280;37397;53.226;10.400;2024-01-10T08:42:04;103036.53;;;-3.45;66.03
51313;BME280;37397;53.226;10.400;2024-01-10T08:44:31;103025.69;;;-3.55;66.00
51313;BME280;37397;53.226;10.400;2024-01-10T08:46:57;103059.38;;;-3.43;66.08
51313;BME280;37397;53.226;10.400;2024-01-10T08:49:24;103054.91;;;-3.44;66.43
51313;BME280;37397;53.226;10.400;2024-01-10T08:51:52;103054.59;;;-3.42;66.07
51313;BME280;37397;53.226;10.400;2024-01-10T08:54:19;103055.88;;;-3.40;66.35
51313;BME280;37397;53.226;10.400;2024-01-10T08:56:46;103059.19;;;-3.38;66.32
51313;BME280;37397;53.226;10.400;2024-01-10T08:59:13;103068.03;;;-3.36;66.68
51313;BME280;37397;53.226;10.400;2024-01-10T09:01:40;103059.50;;;-3.39;66.57
51313;BME280;37397;53.226;10.400;2024-01-10T09:04:06;103056.72;;;-3.39;66.28
51313;BME280;37397;53.226;10.400;2024-01-10T09:06:33;103062.63;;;-3.32;66.25
51313;BME280;37397;53.226;10.400;2024-01-10T09:09:00;103061.47;;;-3.31;66.90
51313;BME280;37397;53.226;10.400;2024-01-10T09:11:27;103053.59;;;-3.29;66.98
51313;BME280;37397;53.226;10.400;2024-01-10T09:13:54;103057.19;;;-3.28;66.38
51313;BME280;37397;53.226;10.400;2024-01-10T09:16:20;103053.25;;;-3.27;66.60
51313;BME280;37397;53.226;10.400;2024-01-10T09:18:47;103046.03;;;-3.28;67.04
51313;BME280;37397;53.226;10.400;2024-01-10T09:21:19;103028.78;;;-3.31;66.74
51313;BME280;37397;53.226;10.400;2024-01-10T09:23:46;103044.22;;;-3.24;66.81
51313;BME280;37397;53.226;10.400;2024-01-10T09:26:14;103040.75;;;-3.21;66.80
51313;BME280;37397;53.226;10.400;2024-01-10T09:28:40;103043.22;;;-3.20;66.46
51313;BME280;37397;53.226;10.400;2024-01-10T09:31:07;103042.56;;;-3.17;66.91
51313;BME280;37397;53.226;10.400;2024-01-10T09:33:33;103040.25;;;-3.15;67.03
51313;BME280;37397;53.226;10.400;2024-01-10T09:36:00;103041.06;;;-3.14;66.60
51313;BME280;37397;53.226;10.400;2024-01-10T09:38:27;103038.78;;;-3.12;67.08
51313;BME280;37397;53.226;10.400;2024-01-10T09:40:59;103029.09;;;-3.15;66.86
51313;BME280;37397;53.226;10.400;2024-01-10T09:43:30;103039.25;;;-3.10;67.07
51313;BME280;37397;53.226;10.400;2024-01-10T09:45:58;103031.38;;;-3.08;67.00
51313;BME280;37397;53.226;10.400;2024-01-10T09:48:29;103031.84;;;-3.06;67.03
51313;BME280;37397;53.226;10.400;2024-01-10T09:50:56;103029.56;;;-3.04;67.53
51313;BME280;37397;53.226;10.400;2024-01-10T09:53:23;103002.16;;;-3.10;67.15
51313;BME280;37397;53.226;10.400;2024-01-10T09:55:50;103025.59;;;-3.03;67.08
51313;BME280;37397;53.226;10.400;2024-01-10T09:58:17;103012.81;;;-3.04;66.78
51313;BME280;37397;53.226;10.400;2024-01-10T10:00:44;103017.06;;;-2.98;67.53
51313;BME280;37397;53.226;10.400;2024-01-10T10:03:11;103022.31;;;-2.96;67.23
51313;BME280;37397;53.226;10.400;2024-01-10T10:05:39;103016.72;;;-2.96;67.55
51313;BME280;37397;53.226;10.400;2024-01-10T10:08:10;103014.75;;;-2.96;67.10
51313;BME280;37397;53.226;10.400;2024-01-10T10:10:38;103009.78;;;-2.90;67.21
51313;BME280;37397;53.226;10.400;2024-01-10T10:13:09;103013.09;;;-2.88;67.25
51313;BME280;37397;53.226;10.400;2024-01-10T10:15:40;103002.25;;;-2.89;67.35
51313;BME280;37397;53.226;10.400;2024-01-10T10:18:13;103006.84;;;-2.85;67.30
51313;BME280;37397;53.226;10.400;2024-01-10T10:20:40;102993.19;;;-2.86;67.83
51313;BME280;37397;53.226;10.400;2024-01-10T10:23:08;102995.47;;;-2.80;67.42
51313;BME280;37397;53.226;10.400;2024-01-10T10:25:43;102996.28;;;-2.79;67.96
51313;BME280;37397;53.226;10.400;2024-01-10T10:28:10;102978.03;;;-2.85;67.79
51313;BME280;37397;53.226;10.400;2024-01-10T10:30:51;102986.06;;;-2.75;67.39
51313;BME280;37397;53.226;10.400;2024-01-10T10:33:18;102987.69;;;-2.74;67.26
51313;BME280;37397;53.226;10.400;2024-01-10T10:35:45;102974.91;;;-2.75;67.73
51313;BME280;37397;53.226;10.400;2024-01-10T10:38:15;102983.09;;;-2.70;67.81
51313;BME280;37397;53.226;10.400;2024-01-10T10:40:42;102981.56;;;-2.67;67.52
51313;BME280;37397;53.226;10.400;2024-01-10T10:43:12;102987.69;;;-2.65;68.14
51313;BME280;37397;53.226;10.400;2024-01-10T10:45:46;102989.16;;;-2.68;67.59
51313;BME280;37397;53.226;10.400;2024-01-10T10:48:16;102999.31;;;-2.63;67.87
51313;BME280;37397;53.226;10.400;2024-01-10T10:50:50;103002.94;;;-2.63;67.67
51313;BME280;37397;53.226;10.400;2024-01-10T10:53:22;102992.94;;;-2.64;67.79
51313;BME280;37397;53.226;10.400;2024-01-10T10:55:52;102996.19;;;-2.62;67.86
51313;BME280;37397;53.226;10.400;2024-01-10T10:58:20;102996.19;;;-2.62;67.96
51313;BME280;37397;53.226;10.400;2024-01-10T11:00:51;103010.13;;;-2.53;67.84
51313;BME280;37397;53.226;10.400;2024-01-10T11:03:20;102997.66;;;-2.55;68.01
51313;BME280;37397;53.226;10.400;2024-01-10T11:05:47;103010.28;;;-2.49;68.28
51313;BME280;37397;53.226;10.400;2024-01-10T11:08:17;103007.81;;;-2.51;67.80
51313;BME280;37397;53.226;10.400;2024-01-10T11:10:46;102994.00;;;-2.56;67.51
51313;BME280;37397;53.226;10.400;2024-01-10T11:13:27;103010.09;;;-2.44;67.96
51313;BME280;37397;53.226;10.400;2024-01-10T11:18:59;103001.03;;;-2.41;67.80
51313;BME280;37397;53.226;10.400;2024-01-10T11:24:04;102995.56;;;-2.38;67.45
51313;BME280;37397;53.226;10.400;2024-01-10T11:26:33;103010.03;;;-2.35;67.75
51313;BME280;37397;53.226;10.400;2024-01-10T11:28:59;102994.56;;;-2.33;68.02
51313;BME280;37397;53.226;10.400;2024-01-10T11:31:28;102991.44;;;-2.31;68.27
51313;BME280;37397;53.226;10.400;2024-01-10T11:34:00;102990.59;;;-2.32;68.18
51313;BME280;37397;53.226;10.400;2024-01-10T11:36:27;102983.03;;;-2.31;67.98
51313;BME280;37397;53.226;10.400;2024-01-10T11:38:57;102985.50;;;-2.30;67.77
51313;BME280;37397;53.226;10.400;2024-01-10T11:46:41;102990.56;;;-2.23;68.28
51313;BME280;37397;53.226;10.400;2024-01-10T11:49:10;102977.56;;;-2.28;68.31
51313;BME280;37397;53.226;10.400;2024-01-10T11:51:38;102993.47;;;-2.20;67.83
51313;BME280;37397;53.226;10.400;2024-01-10T11:54:05;102981.94;;;-2.18;68.13
51313;BME280;37397;53.226;10.400;2024-01-10T11:56:38;102989.19;;;-2.17;67.93
51313;BME280;37397;53.226;10.400;2024-01-10T11:59:13;102982.09;;;-2.14;67.64
51313;BME280;37397;53.226;10.400;2024-01-10T12:01:43;102981.06;;;-2.10;67.47
51313;BME280;37397;53.226;10.400;2024-01-10T12:04:09;102974.00;;;-2.07;67.19
51313;BME280;37397;53.226;10.400;2024-01-10T12:06:48;102958.34;;;-2.08;67.31
51313;BME280;37397;53.226;10.400;2024-01-10T12:09:16;102969.84;;;-2.01;67.12
51313;BME280;37397;53.226;10.400;2024-01-10T12:11:44;102965.38;;;-2.02;67.14
51313;BME280;37397;53.226;10.400;2024-01-10T12:14:11;102967.16;;;-1.97;66.84
51313;BME280;37397;53.226;10.400;2024-01-10T12:16:39;102952.63;;;-1.91;66.81
51313;BME280;37397;53.226;10.400;2024-01-10T12:19:06;102946.06;;;-1.95;67.05
51313;BME280;37397;53.226;10.400;2024-01-10T12:21:32;102950.97;;;-1.92;66.20
51313;BME280;37397;53.226;10.400;2024-01-10T12:23:59;102965.72;;;-1.83;66.68
51313;BME280;37397;53.226;10.400;2024-01-10T12:26:26;102952.41;;;-1.86;66.29
51313;BME280;37397;53.226;10.400;2024-01-10T12:28:59;102959.78;;;-1.81;66.31
51313;BME280;37397;53.226;10.400;2024-01-10T12:31:29;102964.34;;;-1.76;66.25
51313;BME280;37397;53.226;10.400;2024-01-10T12:33:57;102961.22;;;-1.75;66.56
51313;BME280;37397;53.226;10.400;2024-01-10T12:36:24;102954.81;;;-1.75;66.52
51313;BME280;37397;53.226;10.400;2024-01-10T12:38:51;102936.81;;;-1.74;66.25
51313;BME280;37397;53.226;10.400;2024-01-10T12:41:18;102946.53;;;-1.72;66.25
51313;BME280;37397;53.226;10.400;2024-01-10T12:43:49;102955.84;;;-1.68;66.41
51313;BME280;37397;53.226;10.400;2024-01-10T12:46:18;102950.41;;;-1.64;66.10
51313;BME280;37397;53.226;10.400;2024-01-10T12:48:45;102949.22;;;-1.63;66.11
51313;BME280;37397;53.226;10.400;2024-01-10T12:51:12;102951.34;;;-1.60;66.19
51313;BME280;37397;53.226;10.400;2024-01-10T12:53:43;102941.31;;;-1.61;66.12